createdAt,value
2023-04-02T00:01:00.869Z,99887.78
2023-04-02T00:03:42.313Z,99884.19
2023-04-02T00:06:40.280Z,99891.91
2023-04-02T00:09:13.492Z,99887.47
2023-04-02T00:11:44.898Z,99886.44
2023-04-02T00:14:27.077Z,99887.88
2023-04-02T00:16:55.944Z,99887.03
2023-04-02T00:19:46.051Z,99891.81
2023-04-02T00:22:16.115Z,99883.63
2023-04-02T00:24:43.254Z,99890.53
2023-04-02T00:27:13.924Z,99888.78
2023-04-02T00:29:45.479Z,99894.16
2023-04-02T00:32:17.463Z,99898.56
2023-04-02T00:34:45.340Z,99896.28
2023-04-02T00:37:18.350Z,99893.41
2023-04-02T00:39:46.059Z,99900.31
2023-04-02T00:42:13.323Z,99889.84
2023-04-02T00:44:42.833Z,99887.00
2023-04-02T00:47:17.138Z,99895.19
2023-04-02T00:49:45.420Z,99888.81
2023-04-02T00:52:14.563Z,99891.78
2023-04-02T00:55:02.428Z,99897.47
2023-04-02T00:57:29.803Z,99896.09
2023-04-02T00:59:59.117Z,99892.28
2023-04-02T01:02:28.566Z,99892.63
2023-04-02T01:05:05.703Z,99901.56
2023-04-02T01:07:32.985Z,99897.38
2023-04-02T01:10:19.098Z,99902.50
2023-04-02T01:12:49.534Z,99895.16
2023-04-02T01:15:30.523Z,99887.97
2023-04-02T01:18:06.467Z,99893.09
2023-04-02T01:20:33.880Z,99891.06
2023-04-02T01:23:18.221Z,99891.06
2023-04-02T01:25:50.940Z,99890.47
2023-04-02T01:28:33.724Z,99887.63
2023-04-02T01:31:02.543Z,99885.47
2023-04-02T01:33:32.350Z,99886.50
2023-04-02T01:36:07.043Z,99886.09
2023-04-02T01:38:38.555Z,99899.06
2023-04-02T01:41:09.710Z,99897.91
2023-04-02T01:43:42.921Z,99895.16
2023-04-02T01:46:32.655Z,99895.69
2023-04-02T01:49:02.379Z,99900.47
2023-04-02T01:51:34.152Z,99903.66
2023-04-02T01:54:06.151Z,99912.53
2023-04-02T01:56:34.239Z,99910.16
2023-04-02T01:59:03.747Z,99917.03
2023-04-02T02:01:40.627Z,99913.06
2023-04-02T02:04:11.796Z,99914.53
2023-04-02T02:06:39.035Z,99918.53
2023-04-02T02:09:07.481Z,99919.59
2023-04-02T02:11:36.521Z,99921.56
2023-04-02T02:14:22.077Z,99923.41
2023-04-02T02:16:50.008Z,99929.28
2023-04-02T02:19:27.222Z,99927.88
2023-04-02T02:22:08.307Z,99938.88
2023-04-02T02:24:37.153Z,99945.47
2023-04-02T02:27:04.245Z,99939.22
2023-04-02T02:29:35.404Z,99940.13
2023-04-02T02:32:03.198Z,99935.25
2023-04-02T02:34:36.282Z,99944.50
2023-04-02T02:37:12.769Z,99946.19
2023-04-02T02:39:42.991Z,99952.25
2023-04-02T02:42:14.464Z,99957.03
2023-04-02T02:44:44.538Z,99964.75
2023-04-02T02:47:14.744Z,99973.13
2023-04-02T02:49:43.476Z,99977.56
2023-04-02T02:52:19.246Z,99982.38
2023-04-02T02:54:58.261Z,99990.63
2023-04-02T02:57:31.005Z,99982.28
2023-04-02T03:00:00.675Z,99984.41
2023-04-02T03:02:29.144Z,99990.81
2023-04-02T03:04:58.411Z,99988.66
2023-04-02T03:07:28.223Z,99992.13
2023-04-02T03:10:12.433Z,99990.16
2023-04-02T03:12:40.345Z,99991.56
2023-04-02T03:15:07.609Z,99996.03
2023-04-02T03:17:39.699Z,99991.28
2023-04-02T03:20:14.593Z,99996.56
2023-04-02T03:22:46.003Z,99997.00
2023-04-02T03:25:19.329Z,99987.94
2023-04-02T03:27:47.795Z,100001.25
2023-04-02T03:30:33.803Z,100004.59
2023-04-02T03:33:09.348Z,99998.16
2023-04-02T03:35:47.969Z,99997.47
2023-04-02T03:38:25.758Z,100000.19
2023-04-02T03:41:01.346Z,100001.66
2023-04-02T03:43:33.508Z,100007.66
2023-04-02T03:46:23.290Z,100007.66
2023-04-02T03:48:53.975Z,100006.34
2023-04-02T03:51:44.140Z,100006.19
2023-04-02T03:54:14.154Z,100014.63
2023-04-02T03:56:41.476Z,100010.06
2023-04-02T03:59:16.555Z,100016.84
2023-04-02T04:01:49.060Z,100017.88
2023-04-02T04:04:18.085Z,100021.13
2023-04-02T04:06:46.391Z,100029.59
2023-04-02T04:09:20.489Z,100035.59
2023-04-02T04:11:52.816Z,100040.91
2023-04-02T04:14:33.467Z,100037.84
2023-04-02T04:17:17.327Z,100041.91
2023-04-02T04:19:45.572Z,100038.63
2023-04-02T04:22:17.845Z,100041.34
2023-04-02T04:24:47.360Z,100044.72
2023-04-02T04:27:49.064Z,100048.63
2023-04-02T04:30:25.276Z,100055.50
2023-04-02T04:32:58.294Z,100054.59
2023-04-02T04:35:45.515Z,100056.28
2023-04-02T04:38:27.850Z,100055.75
2023-04-02T04:40:59.600Z,100068.88
2023-04-02T04:43:33.543Z,100073.44
2023-04-02T04:46:05.609Z,100076.97
2023-04-02T04:48:53.031Z,100079.81
2023-04-02T04:51:24.643Z,100094.63
2023-04-02T04:53:53.493Z,100092.03
2023-04-02T04:56:27.779Z,100113.44
2023-04-02T04:59:03.572Z,100103.31
2023-04-02T05:01:46.479Z,100116.31
2023-04-02T05:04:19.529Z,100125.56
2023-04-02T05:06:53.216Z,100126.56
2023-04-02T05:09:30.003Z,100132.00
2023-04-02T05:12:03.541Z,100134.56
2023-04-02T05:14:50.467Z,100128.31
2023-04-02T05:17:28.463Z,100132.00
2023-04-02T05:20:16.391Z,100141.88
2023-04-02T05:22:56.042Z,100138.03
2023-04-02T05:25:24.474Z,100144.19
2023-04-02T05:27:55.574Z,100142.88
2023-04-02T05:30:22.670Z,100147.13
2023-04-02T05:33:00.600Z,100142.34
2023-04-02T05:35:32.784Z,100154.56
2023-04-02T05:38:01.860Z,100152.34
2023-04-02T05:40:39.524Z,100164.41
2023-04-02T05:43:11.132Z,100171.63
2023-04-02T05:45:44.302Z,100185.09
2023-04-02T05:48:18.984Z,100186.06
2023-04-02T05:50:51.647Z,100191.84
2023-04-02T05:53:28.266Z,100205.66
2023-04-02T05:55:58.753Z,100202.03
2023-04-02T05:58:46.306Z,100210.53
2023-04-02T06:02:03.094Z,100205.19
2023-04-02T06:04:47.315Z,100216.34
2023-04-02T06:07:16.606Z,100213.13
2023-04-02T06:09:54.484Z,100229.81
2023-04-02T06:12:22.492Z,100234.94
2023-04-02T06:14:49.832Z,100230.59
2023-04-02T06:17:18.397Z,100239.03
2023-04-02T06:19:47.857Z,100242.66
2023-04-02T06:22:24.195Z,100263.25
2023-04-02T06:24:59.588Z,100264.25
2023-04-02T06:27:28.335Z,100268.91
2023-04-02T06:30:02.722Z,100261.59
2023-04-02T06:32:31.516Z,100268.84
2023-04-02T06:34:58.906Z,100277.91
2023-04-02T06:37:31.562Z,100288.06
2023-04-02T06:40:34.047Z,100286.72
2023-04-02T06:43:42.758Z,100285.03
2023-04-02T06:46:29.020Z,100282.25
2023-04-02T06:49:18.473Z,100290.84
2023-04-02T06:51:48.461Z,100291.56
2023-04-02T06:54:16.480Z,100297.38
2023-04-02T06:56:47.463Z,100300.72
2023-04-02T06:59:20.730Z,100302.69
2023-04-02T07:01:51.478Z,100305.53
2023-04-02T07:04:19.787Z,100303.00
2023-04-02T07:06:48.156Z,100313.72
2023-04-02T07:09:17.003Z,100308.97
2023-04-02T07:11:48.787Z,100317.34
2023-04-02T07:14:17.980Z,100315.75
2023-04-02T07:16:45.961Z,100320.25
2023-04-02T07:19:17.923Z,100327.72
2023-04-02T07:21:45.493Z,100330.09
2023-04-02T07:24:13.061Z,100338.53
2023-04-02T07:26:40.622Z,100341.16
2023-04-02T07:29:08.318Z,100340.69
2023-04-02T07:31:37.978Z,100350.59
2023-04-02T07:34:05.443Z,100350.94
2023-04-02T07:36:32.559Z,100358.38
2023-04-02T07:38:59.714Z,100365.25
2023-04-02T07:41:27.684Z,100370.13
2023-04-02T07:43:54.977Z,100368.53
2023-04-02T07:46:22.298Z,100371.03
2023-04-02T07:48:49.588Z,100366.78
2023-04-02T07:51:21.114Z,100366.03
2023-04-02T07:53:54.954Z,100376.22
2023-04-02T07:56:23.441Z,100384.88
2023-04-02T07:58:50.938Z,100380.56
2023-04-02T08:01:20.832Z,100376.31
2023-04-02T08:03:48.115Z,100379.03
2023-04-02T08:06:15.353Z,100383.66
2023-04-02T08:08:42.551Z,100384.00
2023-04-02T08:11:10.475Z,100389.44
2023-04-02T08:13:37.627Z,100393.13
2023-04-02T08:16:05.640Z,100389.09
2023-04-02T08:18:32.788Z,100396.81
2023-04-02T08:21:00.131Z,100392.81
2023-04-02T08:23:27.882Z,100398.63
2023-04-02T08:25:55.229Z,100397.44
2023-04-02T08:28:23.021Z,100399.63
2023-04-02T08:30:51.309Z,100400.59
2023-04-02T08:33:18.958Z,100406.81
2023-04-02T08:35:46.693Z,100416.19
2023-04-02T08:38:15.456Z,100421.22
2023-04-02T08:40:44.070Z,100435.00
2023-04-02T08:43:29.479Z,100441.84
2023-04-02T08:46:07.550Z,100442.09
2023-04-02T08:48:36.436Z,100435.38
2023-04-02T08:51:04.925Z,100430.72
2023-04-02T08:53:37.510Z,100428.78
2023-04-02T08:56:34.219Z,100430.34
2023-04-02T08:59:03.357Z,100413.19
2023-04-02T09:01:36.889Z,100404.88
2023-04-02T09:04:06.985Z,100405.69
2023-04-02T09:06:34.719Z,100418.09
2023-04-02T09:09:02.115Z,100420.25
2023-04-02T09:11:47.799Z,100423.44
2023-04-02T09:14:24.547Z,100418.97
2023-04-02T09:16:53.810Z,100427.19
2023-04-02T09:19:22.967Z,100427.97
2023-04-02T09:21:57.041Z,100436.81
2023-04-02T09:24:24.100Z,100434.88
2023-04-02T09:26:51.249Z,100439.16
2023-04-02T09:29:40.231Z,100443.19
2023-04-02T09:32:18.370Z,100453.16
2023-04-02T09:34:45.594Z,100441.63
2023-04-02T09:37:25.419Z,100436.16
2023-04-02T09:40:01.112Z,100440.66
2023-04-02T09:42:34.186Z,100441.75
2023-04-02T09:45:15.703Z,100444.97
2023-04-02T09:47:43.007Z,100455.38
2023-04-02T09:50:13.865Z,100457.44
2023-04-02T09:52:41.036Z,100453.69
2023-04-02T09:55:17.299Z,100449.31
2023-04-02T09:57:45.754Z,100446.19
2023-04-02T10:00:29.817Z,100444.78
2023-04-02T10:03:03.728Z,100437.78
2023-04-02T10:05:40.544Z,100449.31
2023-04-02T10:08:16.733Z,100452.13
2023-04-02T10:10:46.880Z,100442.44
2023-04-02T10:13:13.981Z,100445.41
2023-04-02T10:15:41.091Z,100427.91
2023-04-02T10:18:13.140Z,100428.31
2023-04-02T10:20:50.447Z,100425.09
2023-04-02T10:23:19.398Z,100423.75
2023-04-02T10:25:53.577Z,100410.56
2023-04-02T10:28:38.449Z,100420.78
2023-04-02T10:31:13.035Z,100419.25
2023-04-02T10:33:41.985Z,100415.28
2023-04-02T10:36:11.397Z,100408.88
2023-04-02T10:38:42.586Z,100417.75
2023-04-02T10:41:22.563Z,100411.09
2023-04-02T10:43:57.819Z,100414.44
2023-04-02T10:46:35.588Z,100421.72
2023-04-02T10:49:12.314Z,100417.13
2023-04-02T10:51:57.679Z,100412.31
2023-04-02T10:54:30.675Z,100408.09
2023-04-02T10:57:01.952Z,100394.97
2023-04-02T10:59:37.366Z,100391.41
2023-04-02T11:02:15.942Z,100400.25
2023-04-02T11:04:46.120Z,100400.03
2023-04-02T11:07:24.861Z,100407.81
2023-04-02T11:09:53.482Z,100413.91
2023-04-02T11:12:27.464Z,100416.56
2023-04-02T11:14:56.194Z,100423.69
2023-04-02T11:17:23.949Z,100418.34
2023-04-02T11:19:51.190Z,100426.81
2023-04-02T11:22:22.854Z,100427.69
2023-04-02T11:24:51.213Z,100440.50
2023-04-02T11:27:22.533Z,100450.63
2023-04-02T11:30:09.013Z,100463.59
2023-04-02T11:32:39.197Z,100458.28
2023-04-02T11:35:25.927Z,100468.03
2023-04-02T11:37:54.447Z,100471.94
2023-04-02T11:40:40.420Z,100485.66
2023-04-02T11:43:26.243Z,100499.50
2023-04-02T11:45:55.196Z,100506.38
2023-04-02T11:48:22.637Z,100492.72
2023-04-02T11:50:49.974Z,100512.13
2023-04-02T11:53:17.405Z,100522.50
2023-04-02T11:56:04.854Z,100517.47
2023-04-02T11:58:38.060Z,100521.66
2023-04-02T12:01:05.311Z,100514.00
2023-04-02T12:03:32.526Z,100512.59
2023-04-02T12:06:10.749Z,100507.06
2023-04-02T12:08:47.243Z,100497.31
2023-04-02T12:11:18.093Z,100519.59
2023-04-02T12:13:48.891Z,100513.13
2023-04-02T12:16:16.906Z,100505.00
2023-04-02T12:18:48.074Z,100491.97
2023-04-02T12:21:19.222Z,100485.66
2023-04-02T12:23:47.860Z,100489.72
2023-04-02T12:26:27.406Z,100470.19
2023-04-02T12:28:56.384Z,100471.09
2023-04-02T12:31:25.400Z,100454.41
2023-04-02T12:33:53.116Z,100459.84
2023-04-02T12:36:21.570Z,100453.63
2023-04-02T12:38:48.743Z,100439.31
2023-04-02T12:41:21.514Z,100429.63
2023-04-02T12:43:56.289Z,100427.19
2023-04-02T12:46:25.942Z,100415.28
2023-04-02T12:48:54.420Z,100414.50
2023-04-02T12:51:21.765Z,100404.84
2023-04-02T12:53:50.463Z,100407.72
2023-04-02T12:56:21.622Z,100403.50
2023-04-02T12:58:53.479Z,100411.25
2023-04-02T13:01:23.698Z,100401.34
2023-04-02T13:04:07.270Z,100401.47
2023-04-02T13:06:35.223Z,100394.94
2023-04-02T13:09:03.688Z,100393.94
2023-04-02T13:11:35.707Z,100385.47
2023-04-02T13:14:03.776Z,100376.78
2023-04-02T13:16:35.579Z,100375.63
2023-04-02T13:19:10.597Z,100373.25
2023-04-02T13:21:38.329Z,100366.53
2023-04-02T13:24:05.700Z,100366.53
2023-04-02T13:26:33.752Z,100359.06
2023-04-02T13:29:02.732Z,100357.84
2023-04-02T13:31:30.991Z,100358.22
2023-04-02T13:33:58.408Z,100348.72
2023-04-02T13:36:28.325Z,100349.94
2023-04-02T13:38:56.081Z,100351.94
2023-04-02T13:41:27.765Z,100349.59
2023-04-02T13:43:55.525Z,100353.50
2023-04-02T13:46:26.785Z,100350.34
2023-04-02T13:48:54.892Z,100349.16
2023-04-02T13:51:31.841Z,100360.91
2023-04-02T13:53:59.298Z,100350.34
2023-04-02T13:56:27.109Z,100351.16
2023-04-02T13:58:54.346Z,100350.72
2023-04-02T14:01:23.430Z,100352.31
2023-04-02T14:03:53.103Z,100350.34
2023-04-02T14:06:23.853Z,100343.19
2023-04-02T14:09:02.802Z,100351.84
2023-04-02T14:11:33.119Z,100347.56
2023-04-02T14:14:00.559Z,100346.38
2023-04-02T14:16:49.513Z,100349.06
2023-04-02T14:19:34.685Z,100346.34
2023-04-02T14:22:20.151Z,100349.38
2023-04-02T14:25:06.213Z,100343.75
2023-04-02T14:27:55.993Z,100346.22
2023-04-02T14:30:30.981Z,100346.94
2023-04-02T14:32:59.244Z,100348.63
2023-04-02T14:35:33.898Z,100340.41
2023-04-02T14:38:01.481Z,100342.19
2023-04-02T14:40:42.247Z,100345.03
2023-04-02T14:43:12.354Z,100335.78
2023-04-02T14:45:57.904Z,100342.44
2023-04-02T14:48:41.843Z,100339.81
2023-04-02T14:51:12.102Z,100341.81
2023-04-02T14:53:59.491Z,100333.00
2023-04-02T14:56:26.768Z,100342.88
2023-04-02T14:59:23.327Z,100344.78
2023-04-02T15:01:54.426Z,100346.31
2023-04-02T15:04:36.879Z,100347.53
2023-04-02T15:07:07.814Z,100343.09
2023-04-02T15:09:38.789Z,100338.22
2023-04-02T15:12:12.572Z,100342.13
2023-04-02T15:14:43.818Z,100350.84
2023-04-02T15:17:12.133Z,100351.19
2023-04-02T15:19:40.146Z,100342.94
2023-04-02T15:22:22.376Z,100343.72
2023-04-02T15:25:07.967Z,100347.50
2023-04-02T15:27:37.992Z,100347.81
2023-04-02T15:30:11.022Z,100347.41
2023-04-02T15:32:39.725Z,100352.84
2023-04-02T15:35:06.817Z,100343.72
2023-04-02T15:37:46.585Z,100344.81
2023-04-02T15:40:35.865Z,100336.91
2023-04-02T15:43:12.115Z,100343.31
2023-04-02T15:45:48.924Z,100342.44
2023-04-02T15:48:27.078Z,100341.50
2023-04-02T15:50:58.263Z,100349.69
2023-04-02T15:53:31.172Z,100348.69
2023-04-02T15:56:18.612Z,100347.44
2023-04-02T15:58:52.019Z,100351.81
2023-04-02T16:01:22.158Z,100350.94
2023-04-02T16:04:16.910Z,100352.81
2023-04-02T16:07:01.004Z,100349.25
2023-04-02T16:09:47.749Z,100357.69
2023-04-02T16:12:16.322Z,100357.25
2023-04-02T16:14:45.788Z,100363.25
2023-04-02T16:17:25.706Z,100370.59
2023-04-02T16:19:56.482Z,100367.72
2023-04-02T16:22:29.040Z,100368.06
2023-04-02T16:24:59.001Z,100374.22
2023-04-02T16:27:26.177Z,100374.38
2023-04-02T16:29:56.960Z,100376.47
2023-04-02T16:32:40.731Z,100377.94
2023-04-02T16:35:43.875Z,100377.88
2023-04-02T16:38:21.302Z,100377.03
2023-04-02T16:41:09.077Z,100377.59
2023-04-02T16:44:00.831Z,100389.00
2023-04-02T16:46:41.013Z,100389.28
2023-04-02T16:49:26.593Z,100390.19
2023-04-02T16:52:07.983Z,100395.56
2023-04-02T16:54:38.196Z,100399.06
2023-04-02T16:57:17.335Z,100399.97
2023-04-02T17:00:00.944Z,100402.38
2023-04-02T17:02:37.404Z,100404.69
2023-04-02T17:05:32.698Z,100405.22
2023-04-02T17:08:05.969Z,100407.88
2023-04-02T17:10:53.869Z,100411.66
2023-04-02T17:13:26.173Z,100404.00
2023-04-02T17:16:13.967Z,100407.31
2023-04-02T17:18:42.309Z,100413.19
2023-04-02T17:21:12.939Z,100411.13
2023-04-02T17:23:56.623Z,100409.06
2023-04-02T17:26:32.677Z,100400.75
2023-04-02T17:29:01.643Z,100409.47
2023-04-02T17:31:34.346Z,100414.91
2023-04-02T17:34:09.908Z,100416.78
2023-04-02T17:36:38.129Z,100422.66
2023-04-02T17:39:08.115Z,100414.91
2023-04-02T17:41:49.581Z,100424.97
2023-04-02T17:44:24.717Z,100429.47
2023-04-02T17:47:01.585Z,100430.28
2023-04-02T17:49:37.825Z,100437.53
2023-04-02T17:52:15.980Z,100444.94
2023-04-02T17:54:57.689Z,100448.50
2023-04-02T17:57:37.359Z,100450.22
2023-04-02T18:00:16.683Z,100460.06
2023-04-02T18:02:46.749Z,100469.38
2023-04-02T18:05:31.036Z,100465.88
2023-04-02T18:08:21.696Z,100481.00
2023-04-02T18:11:01.654Z,100482.25
2023-04-02T18:13:52.135Z,100482.47
2023-04-02T18:16:22.182Z,100501.31
2023-04-02T18:18:52.297Z,100490.88
2023-04-02T18:21:48.610Z,100503.81
2023-04-02T18:24:22.193Z,100505.31
2023-04-02T18:26:49.537Z,100512.69
2023-04-02T18:29:16.736Z,100512.69
2023-04-02T18:31:51.692Z,100512.94
2023-04-02T18:34:21.919Z,100526.81
2023-04-02T18:36:51.955Z,100528.94
2023-04-02T18:39:37.677Z,100532.09
2023-04-02T18:42:23.409Z,100534.13
2023-04-02T18:44:58.851Z,100542.63
2023-04-02T18:47:46.474Z,100541.28
2023-04-02T18:50:25.868Z,100539.53
2023-04-02T18:52:55.683Z,100539.09
2023-04-02T18:55:28.066Z,100542.44
2023-04-02T18:58:06.944Z,100545.34
2023-04-02T19:00:40.143Z,100549.91
2023-04-02T19:03:08.158Z,100556.09
2023-04-02T19:05:36.123Z,100560.19
2023-04-02T19:08:09.536Z,100559.50
2023-04-02T19:10:43.701Z,100557.09
2023-04-02T19:13:16.973Z,100558.88
2023-04-02T19:16:04.536Z,100571.25
2023-04-02T19:18:44.994Z,100574.72
2023-04-02T19:21:25.419Z,100580.53
2023-04-02T19:24:11.984Z,100584.41
2023-04-02T19:26:47.015Z,100585.94
2023-04-02T19:29:21.768Z,100584.53
2023-04-02T19:32:00.029Z,100584.56
2023-04-02T19:34:39.594Z,100580.47
2023-04-02T19:37:37.769Z,100578.03
2023-04-02T19:40:08.609Z,100584.69
2023-04-02T19:42:43.856Z,100596.53
2023-04-02T19:45:27.511Z,100597.78
2023-04-02T19:48:01.660Z,100613.69
2023-04-02T19:50:29.500Z,100609.63
2023-04-02T19:52:58.753Z,100621.59
2023-04-02T19:55:45.485Z,100614.44
2023-04-02T19:58:26.076Z,100603.66
2023-04-02T20:00:55.856Z,100597.47
2023-04-02T20:03:24.403Z,100605.78
2023-04-02T20:05:51.657Z,100609.31
2023-04-02T20:08:18.966Z,100607.19
2023-04-02T20:10:46.262Z,100623.91
2023-04-02T20:13:13.762Z,100641.72
2023-04-02T20:15:45.014Z,100653.38
2023-04-02T20:18:14.520Z,100646.06
2023-04-02T20:20:48.771Z,100621.06
2023-04-02T20:23:18.629Z,100604.75
2023-04-02T20:25:54.565Z,100598.25
2023-04-02T20:28:23.080Z,100593.16
2023-04-02T20:30:51.417Z,100601.91
2023-04-02T20:33:22.747Z,100606.25
2023-04-02T20:35:50.840Z,100611.63
2023-04-02T20:38:18.376Z,100621.97
2023-04-02T20:40:52.520Z,100636.69
2023-04-02T20:43:25.889Z,100654.88
2023-04-02T20:45:58.782Z,100666.31
2023-04-02T20:48:32.493Z,100666.44
2023-04-02T20:51:00.646Z,100647.34
2023-04-02T20:53:31.669Z,100648.72
2023-04-02T20:56:02.753Z,100633.78
2023-04-02T20:58:29.887Z,100634.09
2023-04-02T21:01:05.648Z,100640.28
2023-04-02T21:03:32.777Z,100663.41
2023-04-02T21:05:59.968Z,100652.16
2023-04-02T21:08:27.269Z,100652.25
2023-04-02T21:11:01.019Z,100642.94
2023-04-02T21:13:30.015Z,100645.06
2023-04-02T21:15:58.214Z,100643.03
2023-04-02T21:18:25.465Z,100651.34
2023-04-02T21:20:59.598Z,100648.38
2023-04-02T21:23:27.142Z,100648.81
2023-04-02T21:26:06.237Z,100647.56
2023-04-02T21:28:34.386Z,100638.69
2023-04-02T21:31:12.526Z,100635.81
2023-04-02T21:33:40.941Z,100647.31
2023-04-02T21:36:09.921Z,100640.84
2023-04-02T21:38:38.513Z,100628.78
2023-04-02T21:41:16.796Z,100626.94
2023-04-02T21:43:44.364Z,100631.03
2023-04-02T21:46:11.863Z,100631.03
2023-04-02T21:48:40.651Z,100631.06
2023-04-02T21:51:09.528Z,100636.53
2023-04-02T21:53:36.925Z,100636.75
2023-04-02T21:56:08.522Z,100645.03
2023-04-02T21:58:36.083Z,100641.38
2023-04-02T22:01:05.493Z,100641.66
2023-04-02T22:03:35.239Z,100638.47
2023-04-02T22:06:02.437Z,100628.78
2023-04-02T22:08:29.589Z,100632.44
2023-04-02T22:10:56.675Z,100642.81
2023-04-02T22:18:58.289Z,100629.72
2023-04-02T22:21:25.655Z,100639.09
2023-04-02T22:23:53.410Z,100637.19
2023-04-02T22:26:21.500Z,100629.88
2023-04-02T22:28:48.939Z,100636.00
2023-04-02T22:31:17.461Z,100630.56
2023-04-02T22:33:45.104Z,100633.06
2023-04-02T22:36:12.722Z,100636.00
2023-04-02T22:38:39.847Z,100635.88
2023-04-02T22:41:17.297Z,100626.66
2023-04-02T22:44:03.293Z,100629.81
2023-04-02T22:46:30.708Z,100622.94
2023-04-02T22:48:58.277Z,100624.44
2023-04-02T22:54:12.275Z,100634.28
2023-04-02T22:56:39.513Z,100625.84
2023-04-02T22:59:06.691Z,100625.19
2023-04-02T23:01:35.385Z,100626.50
2023-04-02T23:04:20.820Z,100624.59
2023-04-02T23:06:48.000Z,100626.56
2023-04-02T23:09:15.291Z,100638.41
2023-04-02T23:11:42.380Z,100647.72
2023-04-02T23:14:27.931Z,100643.47
2023-04-02T23:16:55.502Z,100639.25
2023-04-02T23:19:22.769Z,100652.16
2023-04-02T23:21:49.904Z,100660.06
2023-04-02T23:24:17.613Z,100658.56
2023-04-02T23:26:44.722Z,100660.56
2023-04-02T23:29:11.852Z,100657.34
2023-04-02T23:31:38.961Z,100646.09
2023-04-02T23:34:06.190Z,100646.28
2023-04-02T23:36:34.407Z,100647.81
2023-04-02T23:39:09.258Z,100649.97
2023-04-02T23:41:37.459Z,100646.41
2023-04-02T23:44:04.895Z,100649.28
2023-04-02T23:46:32.558Z,100644.81
2023-04-02T23:49:00.550Z,100648.91
2023-04-02T23:51:28.484Z,100648.22
2023-04-02T23:53:56.296Z,100638.78
2023-04-02T23:56:24.220Z,100643.63
2023-04-02T23:58:51.750Z,100635.78
